Time;durP1;ratioP1;P1;durP2;ratioP2;P2;SDS_P1;SDS_P2;PMS_P1;PMS_P2;Temp;Humidity;BMP_temperature;BMP_pressure;BME280_temperature;BME280_humidity;BME280_pressure;Samples;Min_cycle;Max_cycle;Signal;HPM_P1;HPM_P2
2023/09/21 00:00:55;;;;;;;;;;;;;;;17.36;100.00;98740.53;12180534;19;20406;-81
2023/09/21 00:04:58;;;;;;;;;;;;;;;17.34;100.00;98740.03;12193360;19;19974;-80
2023/09/21 00:08:59;;;;;;;;;;;;;;;17.32;100.00;98739.53;12204335;19;19922;-82
2023/09/21 00:13:04;;;;;;;;;;;;;;;17.28;100.00;98728.22;12183125;19;19943;-84
2023/09/21 00:17:05;;;;;;;;;;;;;;;17.24;100.00;98732.75;12199781;19;20326;-81
2023/09/21 00:21:07;;;;;;;;;;;;;;;17.19;100.00;98727.34;12206181;19;19915;-80
2023/09/21 00:25:09;;;;;;;;;;;;;;;17.15;100.00;98729.13;12180979;19;19906;-83
2023/09/21 00:29:11;;;;;;;;;;;;;;;17.12;100.00;98721.41;12206770;19;19915;-82
2023/09/21 00:33:12;;;;;;;;;;;;;;;17.09;100.00;98719.25;12180275;19;20015;-83
2023/09/21 00:37:14;;;;;;;;;;;;;;;17.07;100.00;98716.81;12198775;19;19914;-81
2023/09/21 00:41:17;;;;;;;;;;;;;;;17.04;100.00;98713.81;12205588;19;20412;-81
2023/09/21 00:45:22;;;;;;;;;;;;;;;17.02;100.00;98713.34;12182099;19;19911;-82
2023/09/21 00:49:24;;;;;;;;;;;;;;;16.98;100.00;98715.09;12211410;19;19915;-80
2023/09/21 00:53:30;;;;;;;;;;;;;;;16.96;100.00;98707.09;12223112;19;19911;-83
2023/09/21 00:57:32;;;;;;;;;;;;;;;16.95;100.00;98701.84;12198764;19;19935;-83
2023/09/21 01:01:37;;;;;;;;;;;;;;;16.91;100.00;98696.09;12215365;19;19967;-82
2023/09/21 01:05:40;;;;;;;;;;;;;;;16.87;100.00;98697.06;12207427;19;19930;-87
2023/09/21 01:09:41;;;;;;;;;;;;;;;16.87;100.00;98691.50;12186236;19;19907;-81
2023/09/21 01:13:43;;;;;;;;;;;;;;;16.84;100.00;98684.59;12206413;19;19922;-82
2023/09/21 01:17:45;;;;;;;;;;;;;;;16.81;100.00;98677.72;12205203;19;20311;-82
2023/09/21 01:21:49;;;;;;;;;;;;;;;16.79;100.00;98668.03;12183298;19;19938;-83
2023/09/21 01:25:50;;;;;;;;;;;;;;;16.73;100.00;98678.44;12205100;19;20264;-82
2023/09/21 01:29:52;;;;;;;;;;;;;;;16.66;100.00;98683.66;12203420;19;19910;-81
2023/09/21 01:33:54;;;;;;;;;;;;;;;16.62;100.00;98677.88;12180698;19;19918;-83
2023/09/21 01:37:56;;;;;;;;;;;;;;;16.58;100.00;98662.16;12206021;19;20442;-82
2023/09/21 01:41:57;;;;;;;;;;;;;;;16.52;100.00;98663.44;12204239;19;19919;-81
2023/09/21 01:45:59;;;;;;;;;;;;;;;16.44;100.00;98656.66;12182481;19;19917;-84
2023/09/21 01:50:03;;;;;;;;;;;;;;;16.39;100.00;98670.72;12204001;19;19911;-83
2023/09/21 01:54:07;;;;;;;;;;;;;;;16.33;100.00;98671.94;12209319;19;19910;-81
2023/09/21 01:58:09;;;;;;;;;;;;;;;16.27;100.00;98676.84;12196171;19;20026;-87
2023/09/21 02:02:11;;;;;;;;;;;;;;;16.26;100.00;98688.25;12250473;19;19907;-88
2023/09/21 02:06:13;;;;;;;;;;;;;;;16.20;100.00;98693.09;12226820;19;19950;-84
2023/09/21 02:10:15;;;;;;;;;;;;;;;16.17;100.00;98688.19;12252023;19;19903;-87
2023/09/21 02:14:17;;;;;;;;;;;;;;;16.17;100.00;98668.72;12250093;19;19917;-87
2023/09/21 02:18:19;;;;;;;;;;;;;;;16.17;100.00;98657.59;12229909;19;19911;-87
2023/09/21 02:22:21;;;;;;;;;;;;;;;16.17;100.00;98660.38;12249612;19;19956;-86
2023/09/21 02:26:23;;;;;;;;;;;;;;;16.15;100.00;98645.97;12237219;19;19915;-81
2023/09/21 02:30:25;;;;;;;;;;;;;;;16.11;100.00;98633.84;12214444;19;19947;-86
2023/09/21 02:34:29;;;;;;;;;;;;;;;16.08;100.00;98635.31;12249154;19;19911;-85
2023/09/21 02:38:31;;;;;;;;;;;;;;;16.05;100.00;98629.56;12222698;19;19914;-86
2023/09/21 02:42:34;;;;;;;;;;;;;;;15.97;100.00;98627.53;12232512;19;19940;-86
2023/09/21 02:46:35;;;;;;;;;;;;;;;15.91;100.00;98627.66;12241178;19;20408;-84
2023/09/21 02:50:38;;;;;;;;;;;;;;;15.88;100.00;98624.66;12245631;19;19923;-86
2023/09/21 02:54:40;;;;;;;;;;;;;;;15.85;100.00;98631.66;12218305;19;19911;-83
2023/09/21 02:58:42;;;;;;;;;;;;;;;15.82;100.00;98635.06;12230413;19;19950;-84
2023/09/21 03:02:44;;;;;;;;;;;;;;;15.84;100.00;98624.47;12220530;19;19906;-87
2023/09/21 03:06:46;;;;;;;;;;;;;;;15.93;100.00;98622.59;12207566;19;20284;-86
2023/09/21 03:10:49;;;;;;;;;;;;;;;16.03;100.00;98616.00;12215122;19;20002;-83
2023/09/21 03:14:51;;;;;;;;;;;;;;;16.15;100.00;98607.91;12222689;19;19914;-84
2023/09/21 03:18:53;;;;;;;;;;;;;;;16.28;100.00;98597.84;12195129;19;19904;-81
2023/09/21 03:22:55;;;;;;;;;;;;;;;16.41;100.00;98599.72;12212357;19;20319;-83
2023/09/21 03:26:57;;;;;;;;;;;;;;;16.53;100.00;98581.63;12213151;19;19915;-85
2023/09/21 03:31:00;;;;;;;;;;;;;;;16.66;100.00;98571.53;12189923;19;19926;-85
2023/09/21 03:35:02;;;;;;;;;;;;;;;16.79;100.00;98576.25;12209732;19;19918;-83
2023/09/21 03:39:09;;;;;;;;;;;;;;;16.84;100.00;98576.91;12208689;19;20349;-83
2023/09/21 03:43:14;;;;;;;;;;;;;;;16.84;100.00;98567.75;12190627;19;19981;-82
2023/09/21 03:47:17;;;;;;;;;;;;;;;16.83;100.00;98572.47;12209574;19;20339;-84
2023/09/21 03:51:19;;;;;;;;;;;;;;;16.72;100.00;98559.97;12209903;19;20382;-83
2023/09/21 03:55:21;;;;;;;;;;;;;;;16.62;100.00;98557.47;12188679;19;19907;-82
2023/09/21 03:59:23;;;;;;;;;;;;;;;16.64;100.00;98544.06;12210726;19;19946;-82
2023/09/21 04:03:26;;;;;;;;;;;;;;;16.75;100.00;98539.06;12207839;19;19910;-83
2023/09/21 04:07:31;;;;;;;;;;;;;;;16.85;100.00;98531.25;12182636;19;20361;-83
2023/09/21 04:11:34;;;;;;;;;;;;;;;16.94;100.00;98527.69;12210823;19;19921;-81
2023/09/21 04:15:35;;;;;;;;;;;;;;;16.95;100.00;98520.97;12187791;19;19926;-81
2023/09/21 04:19:37;;;;;;;;;;;;;;;16.97;100.00;98525.06;12206627;19;19922;-82
2023/09/21 04:23:39;;;;;;;;;;;;;;;17.00;100.00;98515.25;12205587;19;19919;-79
2023/09/21 04:27:41;;;;;;;;;;;;;;;17.03;100.00;98522.94;12184553;19;20394;-82
2023/09/21 04:31:43;;;;;;;;;;;;;;;17.05;100.00;98529.03;12202401;19;19936;-79
2023/09/21 04:35:45;;;;;;;;;;;;;;;17.10;100.00;98523.28;12203761;19;19927;-83
2023/09/21 04:39:50;;;;;;;;;;;;;;;17.19;100.00;98514.94;12182705;19;20010;-82
2023/09/21 04:43:52;;;;;;;;;;;;;;;17.24;100.00;98512.84;12204489;19;19921;-80
2023/09/21 04:48:01;;;;;;;;;;;;;;;17.33;100.00;98517.59;12202949;19;19918;-80
2023/09/21 04:52:07;;;;;;;;;;;;;;;17.36;100.00;98520.53;12206693;19;19922;-81
2023/09/21 04:56:09;;;;;;;;;;;;;;;17.33;100.00;98517.59;12196370;19;20239;-79
2023/09/21 05:00:14;;;;;;;;;;;;;;;17.31;100.00;98504.00;12207410;19;20249;-80
2023/09/21 05:04:19;;;;;;;;;;;;;;;17.36;100.00;98498.28;12182283;19;20241;-85
2023/09/21 05:08:21;;;;;;;;;;;;;;;17.38;100.00;98490.41;12206649;19;19939;-79
2023/09/21 05:12:24;;;;;;;;;;;;;;;17.40;100.00;98490.91;12207395;19;19914;-83
2023/09/21 05:16:26;;;;;;;;;;;;;;;17.48;100.00;98492.06;12192798;19;20609;-84
2023/09/21 05:20:28;;;;;;;;;;;;;;;17.64;100.00;98493.22;12209783;19;19915;-83
2023/09/21 05:24:30;;;;;;;;;;;;;;;17.74;100.00;98494.84;12211399;19;19918;-83
2023/09/21 05:28:31;;;;;;;;;;;;;;;17.84;100.00;98490.91;12185637;19;19919;-82
2023/09/21 05:32:33;;;;;;;;;;;;;;;18.00;100.00;98494.84;12204688;19;19922;-83
2023/09/21 05:36:38;;;;;;;;;;;;;;;18.12;100.00;98497.75;12178349;19;19918;-83
2023/09/21 05:40:40;;;;;;;;;;;;;;;18.26;100.00;98507.88;12208031;19;19914;-83
2023/09/21 05:44:42;;;;;;;;;;;;;;;18.33;100.00;98499.84;12193963;19;19918;-82
2023/09/21 05:48:45;;;;;;;;;;;;;;;18.43;100.00;98505.84;12185954;19;19935;-82
2023/09/21 05:52:48;;;;;;;;;;;;;;;18.53;100.00;98506.63;12202259;19;19914;-83
2023/09/21 05:56:51;;;;;;;;;;;;;;;18.63;100.00;98515.47;12207765;19;19922;-84
2023/09/21 06:00:52;;;;;;;;;;;;;;;18.78;100.00;98524.47;12186732;19;20398;-82
2023/09/21 06:04:54;;;;;;;;;;;;;;;18.77;100.00;98539.53;12205198;19;19918;-83
2023/09/21 06:08:56;;;;;;;;;;;;;;;18.78;100.00;98538.41;12207909;19;19949;-82
2023/09/21 06:12:59;;;;;;;;;;;;;;;18.65;100.00;98535.47;12183865;19;19981;-85
2023/09/21 06:17:02;;;;;;;;;;;;;;;18.63;100.00;98548.13;12204291;19;19910;-84
2023/09/21 06:21:06;;;;;;;;;;;;;;;18.60;100.00;98549.59;12202640;19;19911;-81
2023/09/21 06:25:10;;;;;;;;;;;;;;;18.61;100.00;98542.06;12181753;19;19911;-81
2023/09/21 06:29:12;;;;;;;;;;;;;;;18.58;100.00;98551.91;12201918;19;19917;-84
2023/09/21 06:33:14;;;;;;;;;;;;;;;18.60;100.00;98554.38;12203477;19;19911;-83
2023/09/21 06:37:18;;;;;;;;;;;;;;;18.69;100.00;98549.56;12177957;19;19915;-83
2023/09/21 06:41:20;;;;;;;;;;;;;;;18.68;100.00;98542.38;12200560;19;19924;-82
2023/09/21 06:45:23;;;;;;;;;;;;;;;18.69;100.00;98535.63;12201262;19;19915;-83
2023/09/21 06:49:26;;;;;;;;;;;;;;;18.73;100.00;98535.78;12178788;19;19915;-83
2023/09/21 06:53:29;;;;;;;;;;;;;;;18.78;100.00;98530.03;12199548;19;19911;-82
2023/09/21 06:57:31;;;;;;;;;;;;;;;18.84;100.00;98528.69;12203635;19;19950;-82
2023/09/21 07:02:40;;;;;;;;;;;;;;;18.98;100.00;98542.44;12258606;19;20251;-83
2023/09/21 07:09:11;;;;;;;;;;;;;;;19.18;100.00;98518.47;12217582;19;20331;-83
2023/09/21 07:13:13;;;;;;;;;;;;;;;19.27;100.00;98505.28;12235195;19;20278;-82
2023/09/21 07:17:15;;;;;;;;;;;;;;;19.35;100.00;98494.03;12254446;19;19915;-83
2023/09/21 07:21:17;;;;;;;;;;;;;;;19.51;100.00;98488.69;12257701;19;20275;-83
2023/09/21 07:25:19;;;;;;;;;;;;;;;19.74;100.00;98493.94;12237678;19;19910;-83
2023/09/21 07:29:23;;;;;;;;;;;;;;;19.91;100.00;98504.13;12256735;19;20278;-83
2023/09/21 07:33:25;;;;;;;;;;;;;;;20.06;100.00;98513.84;12253099;19;19919;-83
2023/09/21 07:37:27;;;;;;;;;;;;;;;20.28;100.00;98493.88;12232305;19;19911;-83
2023/09/21 07:41:29;;;;;;;;;;;;;;;20.51;100.00;98485.88;12255479;19;19919;-83
2023/09/21 07:45:31;;;;;;;;;;;;;;;20.71;100.00;98496.19;12248590;19;19911;-83
2023/09/21 07:49:33;;;;;;;;;;;;;;;20.85;100.00;98495.84;12255490;19;20258;-83
2023/09/21 07:53:40;;;;;;;;;;;;;;;20.86;100.00;98486.25;12250672;19;19923;-83
2023/09/21 07:57:47;;;;;;;;;;;;;;;20.83;100.00;98492.56;12229461;19;20227;-84
2023/09/21 08:01:51;;;;;;;;;;;;;;;20.79;100.00;98480.44;12252596;19;19919;-83
2023/09/21 08:05:53;;;;;;;;;;;;;;;20.74;100.00;98483.47;12255919;19;19927;-83
2023/09/21 08:09:55;;;;;;;;;;;;;;;20.91;100.00;98483.25;12234121;19;19911;-82
2023/09/21 08:13:58;;;;;;;;;;;;;;;21.14;98.45;98480.75;12252849;19;19931;-82
2023/09/21 08:18:00;;;;;;;;;;;;;;;21.37;97.63;98474.66;12234569;19;19907;-83
2023/09/21 08:22:02;;;;;;;;;;;;;;;21.53;94.87;98481.16;12184338;19;19926;-83
2023/09/21 08:26:04;;;;;;;;;;;;;;;21.76;93.98;98475.81;12203654;19;19918;-83
2023/09/21 08:30:09;;;;;;;;;;;;;;;21.97;92.59;98478.41;12205949;19;19919;-83
2023/09/21 08:34:11;;;;;;;;;;;;;;;22.20;91.77;98475.88;12176197;19;19918;-82
2023/09/21 08:38:12;;;;;;;;;;;;;;;22.29;90.05;98470.91;12204445;19;19907;-82
2023/09/21 08:42:14;;;;;;;;;;;;;;;22.38;90.18;98455.91;12207494;19;19907;-83
2023/09/21 08:46:16;;;;;;;;;;;;;;;22.47;92.02;98443.31;12187033;19;19950;-83
2023/09/21 08:50:18;;;;;;;;;;;;;;;22.59;93.17;98442.41;12206860;19;19926;-82
2023/09/21 08:54:23;;;;;;;;;;;;;;;22.65;94.35;98421.28;12200859;19;20323;-83
2023/09/21 08:58:27;;;;;;;;;;;;;;;22.73;95.70;98414.66;12193287;19;20266;-83
2023/09/21 09:02:29;;;;;;;;;;;;;;;22.84;96.73;98414.09;12206267;19;19915;-82
2023/09/21 09:06:31;;;;;;;;;;;;;;;22.92;97.85;98413.09;12203706;19;20240;-83
2023/09/21 09:10:39;;;;;;;;;;;;;;;23.04;97.64;98413.00;12211629;19;20365;-83
2023/09/21 09:14:41;;;;;;;;;;;;;;;23.27;98.03;98399.06;12209989;19;19911;-83
2023/09/21 09:18:44;;;;;;;;;;;;;;;23.69;97.84;98398.31;12193147;19;19923;-83
2023/09/21 09:22:49;;;;;;;;;;;;;;;24.04;94.10;98403.81;12205964;19;20424;-83
2023/09/21 09:26:50;;;;;;;;;;;;;;;24.23;91.14;98404.97;12206925;19;19955;-83
2023/09/21 09:30:52;;;;;;;;;;;;;;;24.52;88.04;98393.03;12185433;19;19904;-83
2023/09/21 09:34:54;;;;;;;;;;;;;;;24.75;81.01;98387.34;12207248;19;19914;-83
2023/09/21 09:38:55;;;;;;;;;;;;;;;24.88;74.18;98382.31;12217235;19;20542;-83
2023/09/21 09:42:57;;;;;;;;;;;;;;;25.01;76.57;98378.06;12183136;19;19903;-83
2023/09/21 09:47:03;;;;;;;;;;;;;;;25.11;77.91;98384.25;12203294;19;19923;-83
2023/09/21 09:51:06;;;;;;;;;;;;;;;25.34;75.96;98384.97;12205538;19;19921;-83
2023/09/21 09:55:12;;;;;;;;;;;;;;;25.57;71.49;98384.03;12176743;19;19915;-83
2023/09/21 09:59:17;;;;;;;;;;;;;;;25.87;71.35;98373.53;12210700;19;19918;-83
2023/09/21 10:03:18;;;;;;;;;;;;;;;26.08;66.71;98372.13;12202064;19;21445;-83
2023/09/21 10:07:20;;;;;;;;;;;;;;;26.33;66.03;98364.72;12163855;19;19915;-83
2023/09/21 10:11:23;;;;;;;;;;;;;;;26.55;62.81;98353.59;12196861;19;19924;-83
2023/09/21 10:15:26;;;;;;;;;;;;;;;26.80;63.43;98353.75;12191423;19;19915;-83
2023/09/21 10:19:28;;;;;;;;;;;;;;;26.85;59.50;98338.47;12174126;19;19962;-83
2023/09/21 10:23:33;;;;;;;;;;;;;;;26.79;58.09;98336.00;12203733;19;19911;-83
2023/09/21 10:27:39;;;;;;;;;;;;;;;26.93;58.37;98332.47;12204815;19;19918;-83
2023/09/21 10:31:44;;;;;;;;;;;;;;;27.23;57.26;98326.56;12216995;19;19907;-83
2023/09/21 10:35:49;;;;;;;;;;;;;;;27.31;57.30;98324.59;12229193;19;19910;-83
2023/09/21 10:39:57;;;;;;;;;;;;;;;27.24;57.46;98319.69;12217912;19;19965;-83
2023/09/21 10:44:02;;;;;;;;;;;;;;;27.12;56.66;98314.38;12234020;19;19923;-83
2023/09/21 10:48:04;;;;;;;;;;;;;;;27.15;56.27;98319.25;12217999;19;19907;-83
2023/09/21 10:52:06;;;;;;;;;;;;;;;27.10;52.23;98313.13;12195527;19;19911;-83
2023/09/21 10:56:08;;;;;;;;;;;;;;;27.05;51.90;98317.97;12215376;19;19918;-83
2023/09/21 11:00:15;;;;;;;;;;;;;;;26.93;51.40;98304.19;12234581;19;19925;-83
2023/09/21 11:04:18;;;;;;;;;;;;;;;26.89;51.37;98308.19;12215021;19;20031;-83
2023/09/21 11:08:26;;;;;;;;;;;;;;;26.96;51.29;98305.44;12218412;19;19915;-83
2023/09/21 11:12:27;;;;;;;;;;;;;;;26.93;51.26;98309.84;12214124;19;20248;-83
2023/09/21 11:16:29;;;;;;;;;;;;;;;26.87;51.83;98308.59;12190485;19;19927;-82
2023/09/21 11:20:32;;;;;;;;;;;;;;;26.86;52.52;98303.34;12213208;19;19911;-82
2023/09/21 11:24:35;;;;;;;;;;;;;;;26.73;52.31;98292.38;12192059;19;20323;-84
2023/09/21 11:28:37;;;;;;;;;;;;;;;26.77;52.98;98272.59;12212717;19;20291;-83
2023/09/21 11:32:41;;;;;;;;;;;;;;;26.85;51.12;98267.81;12211956;19;19911;-83
2023/09/21 11:36:42;;;;;;;;;;;;;;;26.95;51.84;98261.38;12193120;19;19907;-82
2023/09/21 11:40:44;;;;;;;;;;;;;;;26.92;51.71;98254.53;12217417;19;19918;-84
2023/09/21 11:44:49;;;;;;;;;;;;;;;26.85;50.99;98248.03;12210101;19;19930;-83
2023/09/21 11:48:53;;;;;;;;;;;;;;;26.77;50.76;98247.16;12194983;19;20385;-83
2023/09/21 11:52:56;;;;;;;;;;;;;;;26.87;52.10;98231.50;12215335;19;19926;-83
2023/09/21 11:57:00;;;;;;;;;;;;;;;26.95;51.57;98231.13;12214846;19;19940;-84
2023/09/21 12:05:10;;;;;;;;;;;;;;;27.67;49.99;98222.84;12227877;19;19958;-85
2023/09/21 12:09:13;;;;;;;;;;;;;;;28.06;47.28;98220.03;12233319;19;19910;-83
2023/09/21 12:13:15;;;;;;;;;;;;;;;28.27;48.05;98219.19;12207136;19;19907;-84
2023/09/21 12:17:19;;;;;;;;;;;;;;;28.25;47.57;98206.66;12229909;19;19917;-84
2023/09/21 12:21:22;;;;;;;;;;;;;;;28.32;46.92;98209.50;12230126;19;19915;-86
2023/09/21 12:25:26;;;;;;;;;;;;;;;28.24;46.92;98190.88;12208028;19;19914;-83
2023/09/21 12:29:28;;;;;;;;;;;;;;;28.19;47.32;98197.75;12221511;19;19911;-84
2023/09/21 12:33:31;;;;;;;;;;;;;;;28.18;47.02;98194.13;12220439;19;19949;-85
2023/09/21 12:37:46;;;;;;;;;;;;;;;28.17;46.67;98189.69;12191640;19;19914;-84
2023/09/21 12:41:48;;;;;;;;;;;;;;;28.17;47.00;98177.56;12216633;19;19915;-82
2023/09/21 12:45:50;;;;;;;;;;;;;;;28.24;46.44;98174.69;12192711;19;19940;-83
2023/09/21 12:49:51;;;;;;;;;;;;;;;28.31;46.06;98165.38;12211771;19;19926;-84
2023/09/21 12:53:53;;;;;;;;;;;;;;;28.50;46.30;98155.66;12215705;19;19911;-84
2023/09/21 12:57:55;;;;;;;;;;;;;;;28.92;45.22;98148.16;12182613;19;19919;-83
2023/09/21 13:01:57;;;;;;;;;;;;;;;28.99;44.65;98143.25;12210060;19;19911;-84
2023/09/21 13:05:58;;;;;;;;;;;;;;;28.78;44.94;98132.03;12209556;19;20012;-85
2023/09/21 13:10:00;;;;;;;;;;;;;;;28.54;44.82;98122.44;12186884;19;19948;-83
2023/09/21 13:14:03;;;;;;;;;;;;;;;28.20;46.03;98107.94;12208937;19;19935;-83
2023/09/21 13:18:05;;;;;;;;;;;;;;;28.10;45.93;98099.06;12213497;19;19915;-83
2023/09/21 13:22:08;;;;;;;;;;;;;;;28.33;46.05;98100.63;12192117;19;19914;-84
2023/09/21 13:26:10;;;;;;;;;;;;;;;28.71;46.88;98109.41;12211816;19;19911;-84
2023/09/21 13:30:12;;;;;;;;;;;;;;;29.26;45.03;98100.97;12206437;19;20701;-85
2023/09/21 13:34:14;;;;;;;;;;;;;;;29.63;43.47;98090.97;12179520;19;19922;-84
2023/09/21 13:38:16;;;;;;;;;;;;;;;29.36;44.51;98099.28;12200792;19;20685;-82
2023/09/21 13:42:18;;;;;;;;;;;;;;;28.93;43.82;98096.72;12202989;19;19915;-83
2023/09/21 13:46:19;;;;;;;;;;;;;;;29.24;43.63;98085.56;12184665;19;19915;-84
2023/09/21 13:50:21;;;;;;;;;;;;;;;29.47;43.93;98077.28;12210697;19;19915;-84
2023/09/21 13:54:23;;;;;;;;;;;;;;;29.45;44.55;98074.06;12213132;19;19917;-83
2023/09/21 13:58:25;;;;;;;;;;;;;;;29.10;44.59;98057.34;12186701;19;20028;-83
2023/09/21 14:02:27;;;;;;;;;;;;;;;28.83;44.45;98055.06;12208289;19;19924;-83
2023/09/21 14:06:30;;;;;;;;;;;;;;;28.63;45.81;98051.94;12206976;19;19929;-81
2023/09/21 14:10:31;;;;;;;;;;;;;;;28.53;46.47;98045.13;12179584;19;19919;-81
2023/09/21 14:14:34;;;;;;;;;;;;;;;28.51;46.36;98030.56;12199999;19;19927;-82
2023/09/21 14:18:36;;;;;;;;;;;;;;;28.42;46.59;98023.75;12177618;19;20272;-82
2023/09/21 14:22:38;;;;;;;;;;;;;;;28.21;47.65;98018.97;12201006;19;19907;-82
2023/09/21 14:26:40;;;;;;;;;;;;;;;27.94;48.06;98013.81;12200592;19;19938;-82
2023/09/21 14:30:42;;;;;;;;;;;;;;;27.78;48.50;98019.91;12178015;19;20294;-82
2023/09/21 14:34:48;;;;;;;;;;;;;;;27.91;49.66;98014.63;12202155;19;19914;-82
2023/09/21 14:38:50;;;;;;;;;;;;;;;28.02;49.15;98008.91;12200711;19;19910;-82
2023/09/21 14:42:51;;;;;;;;;;;;;;;28.11;49.10;98003.59;12186611;19;19941;-83
2023/09/21 14:46:53;;;;;;;;;;;;;;;28.02;49.05;98001.25;12218740;19;19922;-85
2023/09/21 14:50:55;;;;;;;;;;;;;;;27.69;48.98;98011.84;12219646;19;20387;-82
2023/09/21 14:54:57;;;;;;;;;;;;;;;27.46;48.59;98000.16;12208682;19;19919;-83
2023/09/21 14:59:00;;;;;;;;;;;;;;;27.39;49.77;97984.00;12214051;19;19932;-82
2023/09/21 15:03:03;;;;;;;;;;;;;;;27.30;51.46;97992.09;12207475;19;19918;-82
2023/09/21 15:07:07;;;;;;;;;;;;;;;27.16;53.32;97992.94;12188314;19;19907;-82
2023/09/21 15:11:09;;;;;;;;;;;;;;;26.91;56.17;97998.53;12209134;19;20265;-82
2023/09/21 15:15:12;;;;;;;;;;;;;;;26.75;58.13;97986.84;12206451;19;19907;-83
2023/09/21 15:19:14;;;;;;;;;;;;;;;26.57;59.98;97973.50;12188580;19;19935;-82
2023/09/21 15:23:16;;;;;;;;;;;;;;;26.44;59.32;97980.69;12206844;19;19934;-82
2023/09/21 15:27:19;;;;;;;;;;;;;;;26.24;61.76;97983.09;12211123;19;19910;-82
2023/09/21 15:31:21;;;;;;;;;;;;;;;25.99;63.00;97976.53;12196651;19;19911;-81
2023/09/21 15:35:23;;;;;;;;;;;;;;;25.78;64.26;97968.75;12218654;19;19932;-82
2023/09/21 15:39:25;;;;;;;;;;;;;;;25.55;65.23;97966.22;12219202;19;19915;-83
2023/09/21 15:43:27;;;;;;;;;;;;;;;25.29;67.62;97962.47;12191067;19;19911;-83
2023/09/21 15:47:28;;;;;;;;;;;;;;;25.05;69.14;97961.06;12217291;19;19950;-81
2023/09/21 15:51:30;;;;;;;;;;;;;;;24.89;70.41;97961.31;12217326;19;20346;-81
2023/09/21 15:55:32;;;;;;;;;;;;;;;24.72;71.21;97967.63;12193814;19;19915;-81
2023/09/21 15:59:35;;;;;;;;;;;;;;;24.54;71.55;97957.03;12210951;19;19907;-82
2023/09/21 16:03:36;;;;;;;;;;;;;;;24.36;72.84;97961.63;12185956;19;19935;-81
2023/09/21 16:07:38;;;;;;;;;;;;;;;24.19;74.27;97949.00;12206954;19;19911;-82
2023/09/21 16:11:41;;;;;;;;;;;;;;;24.02;75.80;97943.97;12210173;19;19935;-82
2023/09/21 16:15:42;;;;;;;;;;;;;;;23.85;78.29;97929.31;12186807;19;19918;-82
2023/09/21 16:19:44;;;;;;;;;;;;;;;23.72;78.49;97925.16;12208139;19;21080;-83
2023/09/21 16:23:46;;;;;;;;;;;;;;;23.60;78.95;97922.56;12209903;19;19914;-82
2023/09/21 16:27:48;;;;;;;;;;;;;;;23.54;79.44;97922.09;12189425;19;19914;-82
2023/09/21 16:31:50;;;;;;;;;;;;;;;23.53;79.99;97923.28;12206792;19;19918;-82
2023/09/21 16:35:55;;;;;;;;;;;;;;;23.49;77.86;97913.97;12209556;19;20367;-82
2023/09/21 16:39:56;;;;;;;;;;;;;;;23.44;78.33;97911.53;12185911;19;19918;-81
2023/09/21 16:43:58;;;;;;;;;;;;;;;23.35;78.04;97905.34;12207410;19;19956;-82
2023/09/21 16:48:01;;;;;;;;;;;;;;;23.26;78.46;97893.59;12203265;19;19919;-82
2023/09/21 16:52:03;;;;;;;;;;;;;;;23.15;79.83;97894.28;12181459;19;19916;-84
2023/09/21 16:56:05;;;;;;;;;;;;;;;23.10;80.10;97890.97;12207655;19;19906;-83
2023/09/21 17:00:07;;;;;;;;;;;;;;;23.00;80.17;97884.03;12204274;19;19930;-84
2023/09/21 17:04:09;;;;;;;;;;;;;;;22.92;79.25;97880.25;12188089;19;20039;-84
2023/09/21 17:08:10;;;;;;;;;;;;;;;22.91;78.88;97891.88;12206067;19;19911;-83
2023/09/21 17:12:13;;;;;;;;;;;;;;;22.89;78.53;97897.06;12215585;19;19910;-84
2023/09/21 17:16:16;;;;;;;;;;;;;;;22.88;78.50;97887.03;12199617;19;19915;-83
2023/09/21 17:20:18;;;;;;;;;;;;;;;22.90;77.78;97885.47;12217194;19;19983;-83
2023/09/21 17:24:21;;;;;;;;;;;;;;;22.86;79.10;97932.31;12212574;19;20190;-83
2023/09/21 17:28:23;;;;;;;;;;;;;;;22.83;78.97;97919.03;12192772;19;20358;-84
2023/09/21 17:32:25;;;;;;;;;;;;;;;22.66;87.83;97878.25;12207248;19;19907;-82
2023/09/21 17:36:26;;;;;;;;;;;;;;;22.13;98.93;97877.34;12216546;19;19995;-82
2023/09/21 17:40:28;;;;;;;;;;;;;;;21.67;100.00;97894.91;12189200;19;19928;-82
2023/09/21 17:44:31;;;;;;;;;;;;;;;21.29;100.00;97904.91;12213761;19;19919;-80
2023/09/21 17:48:33;;;;;;;;;;;;;;;20.98;100.00;97900.22;12203368;19;19915;-81
2023/09/21 17:52:35;;;;;;;;;;;;;;;20.77;100.00;97900.53;12208509;19;19911;-83
2023/09/21 17:56:38;;;;;;;;;;;;;;;20.64;100.00;97899.00;12213472;19;19911;-82
2023/09/21 18:00:39;;;;;;;;;;;;;;;20.54;100.00;97911.59;12185730;19;19939;-83
2023/09/21 18:04:41;;;;;;;;;;;;;;;20.43;100.00;97972.81;12201848;19;20009;-82
2023/09/21 18:08:43;;;;;;;;;;;;;;;20.11;100.00;98011.13;12208176;19;19970;-84
2023/09/21 18:12:45;;;;;;;;;;;;;;;19.90;100.00;98030.06;12186701;19;20259;-81
2023/09/21 18:16:47;;;;;;;;;;;;;;;19.66;100.00;98047.72;12215101;19;20394;-83
2023/09/21 18:20:49;;;;;;;;;;;;;;;19.44;100.00;98069.38;12212154;19;19923;-82
2023/09/21 18:24:51;;;;;;;;;;;;;;;19.27;100.00;98069.63;12189698;19;19928;-81
2023/09/21 18:28:54;;;;;;;;;;;;;;;19.19;100.00;98092.91;12210989;19;19907;-83
2023/09/21 18:32:56;;;;;;;;;;;;;;;19.07;100.00;98090.94;12206746;19;19914;-82
2023/09/21 18:36:58;;;;;;;;;;;;;;;18.96;100.00;98107.31;12191293;19;19919;-82
2023/09/21 18:41:02;;;;;;;;;;;;;;;18.92;100.00;98131.50;12213584;19;19935;-83
2023/09/21 18:45:05;;;;;;;;;;;;;;;18.84;100.00;98135.19;12199083;19;20335;-83
2023/09/21 18:49:07;;;;;;;;;;;;;;;18.75;100.00;98170.75;12175387;19;19966;-81
2023/09/21 18:53:08;;;;;;;;;;;;;;;18.64;100.00;98204.63;12200845;19;19915;-80
2023/09/21 18:57:10;;;;;;;;;;;;;;;18.53;100.00;98222.94;12201743;19;19935;-80
2023/09/21 19:01:12;;;;;;;;;;;;;;;18.44;100.00;98238.91;12178900;19;19935;-80
2023/09/21 19:05:14;;;;;;;;;;;;;;;18.35;100.00;98260.47;12198627;19;19938;-80
2023/09/21 19:09:16;;;;;;;;;;;;;;;18.24;100.00;98317.81;12214675;19;19919;-80
2023/09/21 19:13:18;;;;;;;;;;;;;;;18.03;100.00;98318.56;12178209;19;20478;-81
2023/09/21 19:17:20;;;;;;;;;;;;;;;17.95;100.00;98316.63;12203300;19;19915;-80
2023/09/21 19:21:23;;;;;;;;;;;;;;;17.85;100.00;98275.22;12201590;19;19926;-79
2023/09/21 19:25:25;;;;;;;;;;;;;;;17.83;100.00;98260.81;12180312;19;19915;-80
2023/09/21 19:29:27;;;;;;;;;;;;;;;17.77;100.00;98244.28;12199600;19;19910;-80
2023/09/21 19:33:29;;;;;;;;;;;;;;;17.71;100.00;98237.22;12196197;19;19981;-80
2023/09/21 19:37:30;;;;;;;;;;;;;;;17.64;100.00;98248.09;12175594;19;19935;-80
2023/09/21 19:41:32;;;;;;;;;;;;;;;17.60;100.00;98246.28;12191791;19;19966;-79
2023/09/21 19:45:34;;;;;;;;;;;;;;;17.61;100.00;98226.47;12151548;19;19922;-78
2023/09/21 19:49:36;;;;;;;;;;;;;;;17.61;100.00;98220.06;12169718;19;19954;-79
2023/09/21 19:53:37;;;;;;;;;;;;;;;17.54;100.00;98235.34;12158362;19;19911;-79
2023/09/21 19:57:40;;;;;;;;;;;;;;;17.50;100.00;98244.72;12147449;19;20601;-79
2023/09/21 20:01:45;;;;;;;;;;;;;;;17.51;100.00;98246.31;12169023;19;19919;-79
2023/09/21 20:05:46;;;;;;;;;;;;;;;17.49;100.00;98251.41;12174405;19;20617;-81
2023/09/21 20:09:48;;;;;;;;;;;;;;;17.47;100.00;98260.09;12163550;19;20416;-81
2023/09/21 20:13:50;;;;;;;;;;;;;;;17.44;100.00;98262.75;12182151;19;20229;-80
2023/09/21 20:17:51;;;;;;;;;;;;;;;17.40;100.00;98258.97;12192821;19;19923;-78
2023/09/21 20:21:54;;;;;;;;;;;;;;;17.35;100.00;98260.00;12178367;19;19923;-79
2023/09/21 20:25:55;;;;;;;;;;;;;;;17.38;100.00;98255.72;12202571;19;19915;-81
2023/09/21 20:29:57;;;;;;;;;;;;;;;17.38;100.00;98258.50;12196462;19;20257;-80
2023/09/21 20:33:59;;;;;;;;;;;;;;;17.41;100.00;98257.84;12198456;19;19909;-81
2023/09/21 20:38:02;;;;;;;;;;;;;;;17.41;100.00;98253.09;12204015;19;19947;-80
2023/09/21 20:42:03;;;;;;;;;;;;;;;17.43;100.00;98259.16;12209271;19;19914;-81